Estación municipal de Seva (Osona, P.N. del Montseny)

Consulta los datos en tiempo real de la estación municipal de Seva





Hora UTC 04:25
Temperatura 6.5 ºC
Suelo 15 cm 4.8 ºC
Humedad 99.5 %
Presión 1013.5 hPa
Pluja 0.0 mm
Velocidad viento 2.8 km/h
Dirección viento ENE
Radiación solar 0.1 W/m²

Webcam

Datos diarios 2026-05-05



Hora UTC (invierno +1h; verano +2h)
Temperatura (ºC) Humedad (%) Presión (hPa) Velocidad viento (km/h) Precipitación (mm) Radiación solar (W/m²)
Hora UTC Aire Suelo 15 cm Humedad Presión Vel. Dir. Vel. Max Dir. Intent. máx 5 min. Rad. Sol.
00:05 8.4 6.4 98.7 1014.1 0.8 SSE 0.8 SE 0.0 0.1
00:10 8.2 6.4 98.6 1014.2 0.3 NNE 2.8 NE 0.0 0.1
00:15 8.1 6.4 98.7 1014.2 2.2 ENE 3.9 NE 0.0 0.1
00:20 8.0 6.3 98.7 1014.1 2.2 ENE 3.9 NE 0.0 0.1
00:25 8.0 6.3 98.7 1014.1 4.5 E 6.0 ENE 0.0 0.1
00:30 7.9 6.3 98.8 1014.1 5.2 ESE 9.9 ESE 0.0 0.1
00:35 8.1 6.3 99.1 1014.0 6.3 E 9.2 ESE 0.0 0.1
00:40 8.2 6.5 99.0 1014.1 4.4 ESE 7.4 ESE 0.0 0.1
00:45 8.1 6.6 98.9 1014.1 3.2 E 7.8 E 0.0 0.1
00:50 8.2 6.4 99.1 1014.0 5.6 E 8.5 ENE 0.0 0.1
00:55 8.5 6.7 99.3 1013.9 7.1 E 9.5 E 0.0 0.1
01:00 8.5 6.9 99.1 1013.9 6.4 E 8.1 E 0.0 0.1
01:05 8.4 6.9 98.9 1013.9 4.7 NE 8.5 ESE 0.0 0.1
01:10 8.2 6.8 98.8 1014.0 5.7 E 7.8 E 0.0 0.1
01:15 8.1 6.7 98.9 1013.9 3.9 E 5.6 ESE 0.0 0.1
01:20 8.1 6.5 98.8 1013.9 3.2 ESE 3.9 ESE 0.0 0.1
01:25 7.9 6.3 98.8 1014.0 2.6 SE 3.9 SE 0.0 0.1
01:30 7.9 6.3 99.0 1013.9 3.7 SE 4.9 ESE 0.0 0.1
01:35 8.0 6.3 99.0 1013.8 3.4 ESE 5.6 E 0.0 0.1
01:40 8.1 6.3 99.2 1013.8 3.4 SSE 6.7 SSE 0.0 0.1
01:45 8.2 6.4 99.2 1013.9 2.1 SSW 6.4 S 0.0 0.1
01:50 8.1 6.3 99.2 1013.8 4.6 SSE 8.1 SSE 0.0 0.1
01:55 8.2 6.4 99.3 1013.8 4.3 SSE 7.4 SE 0.0 0.1
02:00 8.2 6.5 99.2 1013.8 4.7 SSE 7.4 SSE 0.0 0.1
02:05 8.2 6.5 99.2 1013.8 3.9 S 7.4 SSE 0.0 0.1
02:10 8.1 6.5 99.2 1013.9 3.1 SSE 6.7 S 0.0 0.1
02:15 8.3 6.5 99.3 1013.8 2.5 SE 6.4 SSW 0.0 0.1
02:20 8.1 6.4 99.0 1013.9 2.7 E 5.3 E 0.0 0.0
02:25 7.9 6.3 98.8 1013.9 3.8 ESE 5.3 E 0.0 0.1
02:30 7.8 6.1 98.9 1013.8 3.8 SE 5.6 ESE 0.0 0.1
02:35 7.7 5.9 99.0 1013.8 3.0 SE 4.2 SE 0.0 0.1
02:40 7.7 5.8 99.1 1013.8 2.5 SE 3.9 SSE 0.0 0.1
02:45 7.5 5.8 99.0 1013.8 3.5 SE 4.9 SE 0.0 0.1
02:50 7.5 5.7 99.0 1013.8 2.8 ESE 3.9 ESE 0.0 0.1
02:55 7.4 5.7 99.1 1013.8 3.9 E 5.3 E 0.0 0.1
03:00 7.3 5.7 99.0 1013.8 2.4 NE 4.6 E 0.0 0.1
03:05 7.3 5.7 99.2 1013.8 3.5 E 5.6 E 0.0 0.1
03:10 7.1 5.6 99.1 1013.8 3.8 NE 5.6 ENE 0.0 0.0
03:15 7.1 5.5 99.2 1013.8 5.4 E 8.1 E 0.0 0.1
03:20 7.1 5.5 99.2 1013.8 4.5 E 6.7 ESE 0.0 0.1
03:25 7.1 5.4 99.3 1013.8 4.4 E 6.0 ENE 0.0 0.1
03:30 7.1 5.3 99.3 1013.7 4.2 E 6.2 E 0.0 0.1
03:35 7.0 5.3 99.2 1013.7 4.2 E 5.6 E 0.0 0.1
03:40 7.0 5.2 99.3 1013.6 3.3 E 4.9 ENE 0.0 0.1
03:45 7.0 5.1 99.4 1013.6 2.2 E 3.5 ENE 0.0 0.1
03:50 7.0 5.1 99.3 1013.6 2.5 E 4.2 NE 0.0 0.1
03:55 6.9 5.0 99.3 1013.5 2.6 NE 3.5 NE 0.0 0.1
04:00 6.7 5.0 99.2 1013.5 2.7 ENE 3.5 NE 0.0 0.1
04:05 6.7 4.9 99.3 1013.6 3.3 ENE 3.9 ENE 0.0 0.1
04:10 6.6 4.9 99.3 1013.6 3.5 E 4.9 ENE 0.0 0.1
04:15 6.5 4.9 99.3 1013.6 4.0 ENE 4.9 ENE 0.0 0.1
04:20 6.5 4.8 99.4 1013.5 3.2 ENE 4.9 NE 0.0 0.1
04:25 6.5 4.8 99.5 1013.5 2.8 ENE 4.2 ENE 0.0 0.1
Máxima 8.5 6.9 99.5 1014.2 7.1 E 9.9 ESE 0.0 0.1
Mínima 6.5 4.8 98.6 1013.5
Total 0.0